Time;durP1;ratioP1;P1;durP2;ratioP2;P2;SDS_P1;SDS_P2;PMS_P1;PMS_P2;Temp;Humidity;BMP_temperature;BMP_pressure;BME280_temperature;BME280_humidity;BME280_pressure;Samples;Min_cycle;Max_cycle;Signal;HPM_P1;HPM_P2
2023/11/19 00:00:52;;;;;;;5.10;4.70;;;5.40;99.90;;;;;;5086719;28;20665;-65
2023/11/19 00:03:20;;;;;;;4.70;4.40;;;5.30;99.90;;;;;;5087596;28;20215;-66
2023/11/19 00:05:48;;;;;;;5.10;4.60;;;5.40;99.90;;;;;;5087008;28;20974;-65
2023/11/19 00:08:15;;;;;;;4.60;4.20;;;5.40;99.90;;;;;;5087115;28;20333;-65
2023/11/19 00:10:42;;;;;;;5.13;4.70;;;5.40;99.90;;;;;;5087425;28;20202;-65
2023/11/19 00:13:10;;;;;;;5.33;4.83;;;5.40;99.90;;;;;;5087434;28;20289;-65
2023/11/19 00:15:37;;;;;;;4.80;4.40;;;5.30;99.90;;;;;;5086912;28;20779;-66
2023/11/19 00:18:04;;;;;;;4.93;4.43;;;5.40;99.90;;;;;;5087481;28;20234;-66
2023/11/19 00:20:31;;;;;;;5.40;4.87;;;5.40;99.90;;;;;;5086270;28;20642;-66
2023/11/19 00:23:01;;;;;;;5.67;4.63;;;5.40;99.90;;;;;;5087626;28;20268;-66
2023/11/19 00:25:28;;;;;;;4.93;4.50;;;5.40;99.90;;;;;;5087059;28;20214;-65
2023/11/19 00:27:56;;;;;;;5.10;4.57;;;5.40;99.90;;;;;;5087281;28;20210;-66
2023/11/19 00:30:23;;;;;;;5.30;4.80;;;5.40;99.90;;;;;;5086019;28;20319;-65
2023/11/19 00:32:50;;;;;;;4.53;4.20;;;5.40;99.90;;;;;;5086153;28;20730;-65
2023/11/19 00:35:17;;;;;;;4.73;4.33;;;5.40;99.90;;;;;;5086655;28;20318;-65
2023/11/19 00:37:45;;;;;;;4.80;4.40;;;5.40;99.90;;;;;;5086320;28;20808;-65
2023/11/19 00:40:15;;;;;;;4.60;4.17;;;5.40;99.90;;;;;;5086589;28;20213;-65
2023/11/19 00:42:42;;;;;;;4.73;4.43;;;5.40;99.90;;;;;;5086532;28;20198;-65
2023/11/19 00:45:12;;;;;;;4.57;4.17;;;5.40;99.90;;;;;;5086195;28;20222;-66
2023/11/19 00:47:39;;;;;;;4.73;4.30;;;5.40;99.90;;;;;;5086282;28;20965;-66
2023/11/19 00:50:09;;;;;;;4.60;4.20;;;5.40;99.90;;;;;;5087009;28;20696;-66
2023/11/19 00:52:36;;;;;;;5.23;4.00;;;5.40;99.90;;;;;;5079809;28;20284;-66
2023/11/19 00:55:03;;;;;;;4.60;4.30;;;5.40;99.90;;;;;;5084856;28;20229;-68
2023/11/19 00:57:32;;;;;;;4.10;3.80;;;5.50;99.90;;;;;;5086127;28;20198;-66
2023/11/19 00:59:59;;;;;;;4.77;4.30;;;5.50;99.90;;;;;;5085800;28;20258;-67
2023/11/19 01:02:26;;;;;;;4.20;3.90;;;5.50;99.90;;;;;;5085993;28;20653;-66
2023/11/19 01:04:53;;;;;;;4.67;4.27;;;5.50;99.90;;;;;;5086118;28;20669;-67
2023/11/19 01:07:21;;;;;;;4.40;4.07;;;5.40;99.90;;;;;;5086316;28;20266;-66
2023/11/19 01:09:48;;;;;;;4.37;4.03;;;5.50;99.90;;;;;;5086440;28;20306;-66
2023/11/19 01:12:15;;;;;;;4.53;4.13;;;5.50;99.90;;;;;;5086349;28;20342;-66
2023/11/19 01:14:43;;;;;;;4.30;4.00;;;5.50;99.90;;;;;;5086467;28;20288;-66
2023/11/19 01:17:10;;;;;;;4.23;3.90;;;5.50;99.90;;;;;;5086220;28;20727;-66
2023/11/19 01:19:37;;;;;;;4.60;4.20;;;5.50;99.90;;;;;;5085795;28;20302;-66
2023/11/19 01:22:04;;;;;;;4.40;4.00;;;5.50;99.90;;;;;;5086251;28;20215;-66
2023/11/19 01:24:31;;;;;;;4.10;3.80;;;5.50;99.90;;;;;;5086240;28;20207;-66
2023/11/19 01:26:59;;;;;;;4.17;3.87;;;5.50;99.90;;;;;;5086065;28;20306;-66
2023/11/19 01:29:26;;;;;;;4.10;3.80;;;5.50;99.90;;;;;;5085591;28;20234;-66
2023/11/19 01:31:54;;;;;;;4.17;3.87;;;5.50;99.90;;;;;;5085610;28;20199;-66
2023/11/19 01:34:21;;;;;;;4.00;3.70;;;5.50;99.90;;;;;;5085500;28;20246;-66
2023/11/19 01:36:48;;;;;;;4.23;3.83;;;5.50;99.90;;;;;;5085550;28;20207;-66
2023/11/19 01:39:17;;;;;;;3.93;3.40;;;5.50;99.90;;;;;;5085262;28;20842;-67
2023/11/19 01:41:44;;;;;;;3.90;3.60;;;5.60;99.90;;;;;;5084534;28;20211;-66
2023/11/19 01:44:12;;;;;;;4.27;3.93;;;5.50;99.90;;;;;;5085558;28;20234;-66
2023/11/19 01:46:41;;;;;;;4.57;3.90;;;5.50;99.90;;;;;;5085182;28;20381;-67
2023/11/19 01:49:11;;;;;;;3.90;3.60;;;5.50;99.90;;;;;;5085009;28;20334;-66
2023/11/19 01:51:39;;;;;;;3.90;3.60;;;5.50;99.90;;;;;;5084880;28;20210;-66
2023/11/19 01:54:07;;;;;;;4.30;4.00;;;5.50;99.90;;;;;;5085030;28;20616;-66
2023/11/19 01:56:35;;;;;;;3.73;3.50;;;5.50;99.90;;;;;;5085306;28;20238;-66
2023/11/19 01:59:03;;;;;;;4.20;3.87;;;5.50;99.90;;;;;;5085040;28;20581;-66
2023/11/19 02:01:32;;;;;;;3.73;3.50;;;5.50;99.90;;;;;;5084885;28;20693;-66
2023/11/19 02:03:59;;;;;;;4.53;4.10;;;5.50;99.90;;;;;;5084552;28;20729;-66
2023/11/19 02:06:29;;;;;;;4.03;3.70;;;5.50;99.90;;;;;;5085336;28;20211;-66
2023/11/19 02:08:56;;;;;;;4.03;3.70;;;5.40;99.90;;;;;;5085244;28;20265;-66
2023/11/19 02:11:23;;;;;;;3.77;3.47;;;5.50;99.90;;;;;;5085464;28;20202;-66
2023/11/19 02:13:50;;;;;;;4.00;3.70;;;5.40;99.90;;;;;;5085266;28;20199;-66
2023/11/19 02:16:17;;;;;;;3.60;3.37;;;5.50;99.90;;;;;;5084375;28;20325;-67
2023/11/19 02:18:44;;;;;;;3.57;3.37;;;5.40;99.90;;;;;;5084681;28;20322;-66
2023/11/19 02:21:11;;;;;;;4.10;3.70;;;5.40;99.90;;;;;;5084987;28;20248;-66
2023/11/19 02:23:40;;;;;;;4.87;3.63;;;5.50;99.90;;;;;;5084495;28;20661;-66
2023/11/19 02:26:14;;;;;;;3.73;3.40;;;5.50;99.90;;;;;;5084431;28;20207;-66
2023/11/19 02:28:43;;;;;;;3.33;3.13;;;5.40;99.90;;;;;;5084325;28;20198;-66
2023/11/19 02:31:11;;;;;;;3.33;3.13;;;5.50;99.90;;;;;;5084239;28;20205;-66
2023/11/19 02:33:38;;;;;;;3.50;3.20;;;5.50;99.90;;;;;;5064187;28;20215;-66
2023/11/19 02:36:06;;;;;;;3.83;3.50;;;5.50;99.90;;;;;;5077595;28;20745;-66
2023/11/19 02:38:33;;;;;;;3.33;3.13;;;5.50;99.90;;;;;;5083779;28;20355;-66
2023/11/19 02:41:04;;;;;;;4.07;3.27;;;5.50;99.90;;;;;;5084613;28;20633;-66
2023/11/19 02:43:33;;;;;;;3.37;3.17;;;5.50;99.90;;;;;;5084288;28;20195;-67
2023/11/19 02:46:02;;;;;;;3.33;3.13;;;5.50;99.90;;;;;;5085027;28;20210;-66
2023/11/19 02:48:30;;;;;;;3.40;3.10;;;5.50;99.90;;;;;;5084607;28;20209;-66
2023/11/19 02:50:58;;;;;;;3.30;3.10;;;5.50;99.90;;;;;;5084304;28;20317;-66
2023/11/19 02:53:27;;;;;;;3.50;3.20;;;5.60;99.90;;;;;;5083178;28;20222;-66
2023/11/19 02:56:00;;;;;;;4.77;2.90;;;5.60;99.90;;;;;;5084359;28;20325;-66
2023/11/19 02:58:28;;;;;;;3.43;3.13;;;5.60;99.90;;;;;;5084271;28;20199;-66
2023/11/19 03:00:57;;;;;;;3.87;3.10;;;5.60;99.90;;;;;;5083720;28;20202;-66
2023/11/19 03:03:28;;;;;;;3.13;2.93;;;5.60;99.90;;;;;;5084688;28;20617;-66
2023/11/19 03:05:56;;;;;;;3.10;2.90;;;5.60;99.90;;;;;;5084246;28;20203;-66
2023/11/19 03:08:23;;;;;;;3.37;3.07;;;5.60;99.90;;;;;;5084309;28;20325;-67
2023/11/19 03:10:50;;;;;;;3.53;3.13;;;5.60;99.90;;;;;;5083406;28;20207;-66
2023/11/19 03:13:17;;;;;;;3.50;3.20;;;5.60;99.90;;;;;;5084929;28;20238;-66
2023/11/19 03:15:44;;;;;;;3.40;3.10;;;5.60;99.90;;;;;;5083806;28;20286;-67
2023/11/19 03:18:11;;;;;;;3.30;3.10;;;5.60;99.90;;;;;;5101106;28;20233;-66
2023/11/19 03:20:40;;;;;;;3.40;3.20;;;5.60;99.90;;;;;;5104651;28;20300;-66
2023/11/19 03:23:07;;;;;;;3.50;3.30;;;5.60;99.90;;;;;;5093419;28;20622;-66
2023/11/19 03:25:34;;;;;;;3.57;3.27;;;5.50;99.90;;;;;;5084401;28;20238;-66
2023/11/19 03:28:02;;;;;;;3.93;3.63;;;5.60;99.90;;;;;;5084388;28;20271;-66
2023/11/19 03:30:29;;;;;;;3.73;3.50;;;5.50;99.90;;;;;;5083592;28;20268;-66
2023/11/19 03:32:56;;;;;;;4.97;3.73;;;5.50;99.90;;;;;;5083835;28;20203;-66
2023/11/19 03:35:23;;;;;;;4.50;4.20;;;5.50;99.90;;;;;;5084050;28;20254;-67
2023/11/19 03:37:51;;;;;;;5.93;3.67;;;5.40;99.90;;;;;;5084086;28;20321;-66
2023/11/19 03:40:19;;;;;;;4.80;4.40;;;5.40;99.90;;;;;;5083992;28;20205;-66
2023/11/19 03:42:46;;;;;;;4.23;3.83;;;5.40;99.90;;;;;;5084804;28;20340;-66
2023/11/19 03:45:14;;;;;;;4.40;4.10;;;5.30;99.90;;;;;;5084085;28;20298;-66
2023/11/19 03:47:41;;;;;;;4.37;3.93;;;5.30;99.90;;;;;;5083764;28;20206;-66
2023/11/19 03:50:09;;;;;;;4.67;4.27;;;5.30;99.90;;;;;;5084127;28;20207;-67
2023/11/19 03:52:35;;;;;;;5.57;4.10;;;5.30;99.90;;;;;;5091189;28;20206;-66
2023/11/19 03:55:04;;;;;;;4.77;4.37;;;5.30;99.90;;;;;;5104563;28;20475;-66
2023/11/19 03:57:32;;;;;;;4.57;4.13;;;5.30;99.90;;;;;;5104194;28;20202;-66
2023/11/19 03:59:59;;;;;;;4.60;4.20;;;5.20;99.90;;;;;;5104301;28;20237;-66
2023/11/19 04:02:28;;;;;;;4.70;4.37;;;5.20;99.90;;;;;;5104168;28;20206;-66
2023/11/19 04:04:56;;;;;;;5.63;4.53;;;5.20;99.90;;;;;;5103100;28;20206;-66
2023/11/19 04:07:23;;;;;;;4.90;4.50;;;5.20;99.90;;;;;;5086986;28;20709;-66
2023/11/19 04:09:49;;;;;;;4.77;4.37;;;5.20;99.90;;;;;;5087338;28;20238;-66
2023/11/19 04:12:18;;;;;;;4.70;4.30;;;5.20;99.90;;;;;;5087594;28;20234;-66
2023/11/19 04:14:45;;;;;;;5.03;4.63;;;5.20;99.90;;;;;;5087433;28;20295;-66
2023/11/19 04:17:11;;;;;;;4.90;4.50;;;5.20;99.90;;;;;;5087409;28;20235;-66
2023/11/19 04:19:41;;;;;;;5.10;4.73;;;5.20;99.90;;;;;;5087185;28;20294;-66
2023/11/19 04:22:08;;;;;;;5.07;4.67;;;5.20;99.90;;;;;;5087425;28;20668;-66
2023/11/19 04:24:35;;;;;;;5.00;4.60;;;5.20;99.90;;;;;;5086713;28;20290;-66
2023/11/19 04:27:01;;;;;;;5.27;4.77;;;5.10;99.90;;;;;;5086913;28;20892;-66
2023/11/19 04:29:31;;;;;;;5.40;5.00;;;5.20;99.90;;;;;;5086555;28;20295;-66
2023/11/19 04:31:58;;;;;;;5.77;5.17;;;5.20;99.90;;;;;;5086525;28;20217;-66
2023/11/19 04:34:25;;;;;;;5.30;4.80;;;5.20;99.90;;;;;;5086970;28;20301;-66
2023/11/19 04:36:52;;;;;;;5.90;5.40;;;5.20;99.90;;;;;;5086879;28;20238;-66
2023/11/19 04:39:19;;;;;;;5.50;5.00;;;5.20;99.90;;;;;;5086662;28;20199;-67
2023/11/19 04:41:49;;;;;;;5.30;4.90;;;5.20;99.90;;;;;;5087011;28;20202;-66
2023/11/19 04:44:17;;;;;;;6.03;5.50;;;5.20;99.90;;;;;;5086927;28;20217;-66
2023/11/19 04:46:45;;;;;;;5.47;4.97;;;5.20;99.90;;;;;;5086794;28;20214;-67
2023/11/19 04:49:13;;;;;;;5.40;5.00;;;5.10;99.90;;;;;;5086680;28;20207;-66
2023/11/19 04:51:43;;;;;;;16.03;6.17;;;5.10;99.90;;;;;;5087159;28;20212;-66
2023/11/19 04:54:10;;;;;;;5.30;4.90;;;5.10;99.90;;;;;;5066813;28;20229;-67
2023/11/19 04:56:37;;;;;;;5.43;4.60;;;5.10;99.90;;;;;;5066458;28;20390;-66
2023/11/19 04:59:05;;;;;;;5.43;5.03;;;5.10;99.90;;;;;;5065991;28;20212;-67
2023/11/19 05:01:33;;;;;;;5.23;4.83;;;5.10;99.90;;;;;;5065841;28;20235;-66
2023/11/19 05:04:01;;;;;;;5.03;4.37;;;5.10;99.90;;;;;;5066286;28;20207;-66
2023/11/19 05:06:29;;;;;;;5.00;4.60;;;5.10;99.90;;;;;;5081420;28;20215;-67
2023/11/19 05:08:56;;;;;;;5.40;4.90;;;5.10;99.90;;;;;;5086197;28;20243;-67
2023/11/19 05:11:23;;;;;;;5.57;5.07;;;5.10;99.90;;;;;;5086297;28;20305;-67
2023/11/19 05:13:50;;;;;;;4.90;4.50;;;5.10;99.90;;;;;;5086663;28;20228;-66
2023/11/19 05:16:17;;;;;;;4.67;4.37;;;5.10;99.90;;;;;;5084842;28;20266;-66
2023/11/19 05:18:44;;;;;;;6.57;4.43;;;5.10;99.90;;;;;;5086338;28;20207;-66
2023/11/19 05:21:13;;;;;;;4.87;4.47;;;5.10;99.90;;;;;;5086039;28;20206;-67
2023/11/19 05:23:41;;;;;;;4.13;3.83;;;5.10;99.90;;;;;;5085414;28;20206;-66
2023/11/19 05:26:10;;;;;;;4.47;4.17;;;5.10;99.90;;;;;;5085568;28;20293;-67
2023/11/19 05:28:39;;;;;;;4.07;3.83;;;5.10;99.90;;;;;;5085799;28;20747;-67
2023/11/19 05:31:06;;;;;;;4.70;4.30;;;5.10;99.90;;;;;;5086036;28;20206;-66
2023/11/19 05:33:33;;;;;;;4.70;4.20;;;5.10;99.90;;;;;;5085777;28;20565;-66
2023/11/19 05:36:03;;;;;;;4.80;4.40;;;5.10;99.90;;;;;;5085636;28;20232;-66
2023/11/19 05:38:31;;;;;;;6.23;4.50;;;5.10;99.90;;;;;;5085996;28;20293;-66
2023/11/19 05:40:58;;;;;;;4.83;4.53;;;5.10;99.90;;;;;;5086217;28;20574;-67
2023/11/19 05:43:25;;;;;;;5.13;4.73;;;5.10;99.90;;;;;;5085840;28;20302;-66
2023/11/19 05:45:52;;;;;;;5.50;5.00;;;5.10;99.90;;;;;;5084479;28;20202;-65
2023/11/19 05:48:19;;;;;;;8.40;5.27;;;5.10;99.90;;;;;;5064350;28;20215;-66
2023/11/19 05:50:46;;;;;;;5.20;4.80;;;5.10;99.90;;;;;;5063783;28;20665;-66
2023/11/19 05:53:14;;;;;;;5.33;4.83;;;5.10;99.90;;;;;;5076318;28;20206;-66
2023/11/19 05:55:48;;;;;;;5.33;4.93;;;5.10;99.90;;;;;;5083427;28;20233;-66
2023/11/19 05:58:16;;;;;;;5.40;5.00;;;5.10;99.90;;;;;;5084038;28;20696;-65
2023/11/19 06:00:43;;;;;;;5.80;5.30;;;5.10;99.90;;;;;;5083632;28;20237;-66
2023/11/19 06:03:10;;;;;;;5.73;5.27;;;5.10;99.90;;;;;;5084524;28;20284;-66
2023/11/19 06:05:37;;;;;;;6.03;5.53;;;5.10;99.90;;;;;;5083884;28;20218;-66
2023/11/19 06:08:04;;;;;;;5.40;5.00;;;5.10;99.90;;;;;;5083201;28;20656;-66
2023/11/19 06:10:31;;;;;;;5.83;5.33;;;5.10;99.90;;;;;;5083071;28;20669;-66
2023/11/19 06:13:04;;;;;;;5.90;5.40;;;5.10;99.90;;;;;;5083728;28;20851;-66
2023/11/19 06:15:32;;;;;;;6.00;5.40;;;5.10;99.90;;;;;;5083645;28;20565;-66
2023/11/19 06:18:01;;;;;;;5.90;5.40;;;5.10;99.90;;;;;;5083510;28;20337;-66
2023/11/19 06:20:29;;;;;;;5.83;5.33;;;5.10;99.90;;;;;;5083517;28;20213;-66
2023/11/19 06:22:56;;;;;;;5.90;5.40;;;5.10;99.90;;;;;;5092984;28;20693;-66
2023/11/19 06:25:23;;;;;;;8.03;5.97;;;5.10;99.90;;;;;;5083809;28;20547;-66
2023/11/19 06:27:50;;;;;;;5.73;5.23;;;5.10;99.90;;;;;;5082996;28;20214;-66
2023/11/19 06:30:19;;;;;;;7.53;5.80;;;5.20;99.90;;;;;;5083426;28;20257;-66
2023/11/19 06:32:46;;;;;;;6.03;5.43;;;5.20;99.90;;;;;;5083672;28;20283;-66
2023/11/19 06:35:14;;;;;;;6.97;6.00;;;5.20;99.90;;;;;;5082980;28;20210;-65
2023/11/19 06:37:42;;;;;;;6.07;5.57;;;5.20;99.90;;;;;;5082894;28;20230;-66
2023/11/19 06:40:10;;;;;;;6.93;6.30;;;5.30;99.90;;;;;;5082840;28;20294;-66
2023/11/19 06:42:37;;;;;;;6.67;6.03;;;5.20;99.90;;;;;;5083629;28;20202;-66
2023/11/19 06:45:06;;;;;;;6.53;5.87;;;5.20;99.90;;;;;;5083433;28;20206;-66
2023/11/19 06:47:34;;;;;;;6.87;5.97;;;5.20;99.90;;;;;;5082818;28;20211;-66
2023/11/19 06:50:01;;;;;;;7.83;6.50;;;5.30;99.90;;;;;;5083143;28;20256;-66
2023/11/19 06:52:28;;;;;;;8.10;6.30;;;5.30;99.90;;;;;;5082399;28;20210;-66
2023/11/19 06:54:55;;;;;;;7.00;6.30;;;5.30;99.90;;;;;;5082735;28;20211;-66
2023/11/19 06:57:23;;;;;;;6.13;5.57;;;5.30;99.90;;;;;;5082864;28;20226;-66
2023/11/19 06:59:50;;;;;;;6.73;5.60;;;5.30;99.90;;;;;;5082797;28;20210;-66
2023/11/19 07:02:17;;;;;;;7.27;5.67;;;5.30;99.90;;;;;;5082431;28;20206;-66
2023/11/19 07:04:45;;;;;;;6.40;5.90;;;5.30;99.90;;;;;;5082289;28;20927;-66
2023/11/19 07:07:14;;;;;;;6.13;5.60;;;5.30;99.90;;;;;;5082771;28;20282;-66
2023/11/19 07:09:41;;;;;;;6.73;6.03;;;5.30;99.90;;;;;;5082698;28;20563;-66
2023/11/19 07:12:08;;;;;;;7.27;6.30;;;5.40;99.90;;;;;;5082786;28;20544;-66
2023/11/19 07:14:35;;;;;;;6.77;6.03;;;5.40;99.90;;;;;;5088811;28;20217;-66
2023/11/19 07:17:02;;;;;;;6.27;5.67;;;5.40;99.90;;;;;;5082587;28;20261;-66
2023/11/19 07:19:29;;;;;;;6.87;6.20;;;5.40;99.90;;;;;;5082314;28;20215;-66
2023/11/19 07:21:57;;;;;;;6.07;5.57;;;5.40;99.90;;;;;;5082585;28;20263;-66
2023/11/19 07:24:24;;;;;;;7.13;6.10;;;5.40;99.90;;;;;;5082839;28;20210;-66
2023/11/19 07:26:51;;;;;;;6.70;6.00;;;5.50;99.90;;;;;;5082541;28;20210;-66
2023/11/19 07:29:18;;;;;;;6.80;6.10;;;5.50;99.90;;;;;;5103292;28;20656;-65
2023/11/19 07:31:45;;;;;;;6.03;5.53;;;5.50;99.90;;;;;;5082655;28;20302;-66
2023/11/19 07:34:13;;;;;;;6.10;5.50;;;5.40;99.90;;;;;;5082335;28;20206;-66
2023/11/19 07:36:40;;;;;;;5.93;5.43;;;5.50;99.90;;;;;;5082139;28;20354;-66
2023/11/19 07:39:10;;;;;;;5.30;4.80;;;5.50;99.90;;;;;;5082067;28;20202;-66
2023/11/19 07:41:37;;;;;;;5.33;4.83;;;5.60;99.90;;;;;;5086240;28;20732;-66
2023/11/19 07:44:04;;;;;;;5.90;5.40;;;5.60;99.90;;;;;;5086350;28;20653;-65
2023/11/19 07:46:31;;;;;;;5.93;5.33;;;5.70;99.90;;;;;;5085927;28;20292;-65
2023/11/19 07:48:58;;;;;;;5.43;5.03;;;5.70;99.90;;;;;;5086903;28;20207;-66
2023/11/19 07:51:25;;;;;;;5.77;5.07;;;5.70;99.90;;;;;;5086053;28;20221;-66
2023/11/19 07:53:52;;;;;;;6.07;4.97;;;5.70;99.90;;;;;;5086459;28;20618;-66
2023/11/19 07:56:20;;;;;;;6.00;5.40;;;5.70;99.90;;;;;;5086149;28;20760;-66
2023/11/19 07:58:48;;;;;;;6.30;5.70;;;5.80;99.90;;;;;;5086227;28;20293;-66
2023/11/19 08:01:17;;;;;;;5.37;4.87;;;5.80;99.90;;;;;;5085471;28;20291;-66
2023/11/19 08:03:43;;;;;;;5.70;5.00;;;5.80;99.90;;;;;;5085944;28;20329;-66
2023/11/19 08:06:11;;;;;;;5.63;5.13;;;5.80;99.90;;;;;;5085787;28;20211;-66
2023/11/19 08:08:38;;;;;;;5.00;4.53;;;5.90;99.90;;;;;;5085476;28;21064;-66
2023/11/19 08:11:06;;;;;;;5.20;4.70;;;5.90;99.90;;;;;;5086144;28;20211;-66
2023/11/19 08:13:34;;;;;;;5.20;4.70;;;5.90;99.90;;;;;;5085816;28;20279;-66
2023/11/19 08:16:01;;;;;;;5.40;4.90;;;6.00;99.90;;;;;;5085464;28;20326;-66
2023/11/19 08:18:28;;;;;;;5.20;4.70;;;6.00;99.90;;;;;;5085420;28;20265;-66
2023/11/19 08:20:56;;;;;;;4.80;4.37;;;6.10;99.90;;;;;;5085757;28;20214;-66
2023/11/19 08:23:25;;;;;;;6.33;5.20;;;6.10;99.90;;;;;;5071571;28;20204;-67
2023/11/19 08:25:52;;;;;;;6.27;4.50;;;6.10;99.90;;;;;;5065001;28;20204;-66
2023/11/19 08:28:19;;;;;;;7.80;4.70;;;6.10;99.90;;;;;;5064945;28;20215;-65
2023/11/19 08:30:47;;;;;;;5.00;4.30;;;6.20;99.90;;;;;;5064666;28;20713;-65
2023/11/19 08:33:14;;;;;;;5.73;4.47;;;6.20;99.90;;;;;;5064919;28;20239;-65
2023/11/19 08:35:41;;;;;;;4.50;4.20;;;6.20;99.90;;;;;;5065048;28;20337;-65
2023/11/19 08:38:08;;;;;;;5.07;4.47;;;6.30;99.90;;;;;;5065004;28;20318;-66
2023/11/19 08:40:35;;;;;;;4.67;4.27;;;6.30;99.90;;;;;;5084095;28;20681;-66
2023/11/19 08:43:02;;;;;;;4.83;4.43;;;6.30;99.90;;;;;;5085447;28;20214;-66
2023/11/19 08:45:29;;;;;;;5.20;4.70;;;6.40;99.90;;;;;;5084583;28;20213;-66
2023/11/19 08:47:58;;;;;;;5.10;4.30;;;6.40;99.90;;;;;;5084856;28;20260;-65
2023/11/19 08:50:25;;;;;;;4.30;4.00;;;6.40;99.90;;;;;;5085088;28;20247;-66
2023/11/19 08:52:52;;;;;;;4.33;3.97;;;6.50;99.90;;;;;;5094357;28;20216;-66
2023/11/19 08:55:19;;;;;;;4.40;4.07;;;6.50;99.90;;;;;;5105153;28;20333;-66
2023/11/19 08:57:46;;;;;;;4.33;4.00;;;6.50;99.90;;;;;;5105094;28;20768;-65
2023/11/19 09:00:14;;;;;;;4.13;3.83;;;6.50;99.90;;;;;;5100229;28;20231;-66
2023/11/19 09:02:41;;;;;;;4.50;3.83;;;6.60;99.90;;;;;;5084221;28;20301;-66
2023/11/19 09:05:09;;;;;;;4.17;3.87;;;6.70;99.90;;;;;;5084588;28;20681;-66
2023/11/19 09:07:36;;;;;;;4.43;4.03;;;6.70;99.90;;;;;;5084314;28;20739;-66
2023/11/19 09:10:05;;;;;;;4.57;4.17;;;6.70;99.90;;;;;;5084839;28;20210;-66
2023/11/19 09:12:32;;;;;;;5.70;3.80;;;6.70;99.90;;;;;;5084842;28;20230;-66
2023/11/19 09:14:59;;;;;;;4.00;3.70;;;6.80;99.90;;;;;;5084397;28;20206;-65
2023/11/19 09:17:28;;;;;;;4.27;3.83;;;6.70;99.90;;;;;;5084424;28;20262;-66
2023/11/19 09:19:55;;;;;;;4.07;3.60;;;6.80;99.90;;;;;;5084446;28;20289;-66
2023/11/19 09:22:24;;;;;;;4.23;3.80;;;6.80;99.90;;;;;;5079069;28;20222;-66
2023/11/19 09:24:51;;;;;;;3.70;3.40;;;6.90;99.90;;;;;;5064236;28;20208;-66
2023/11/19 09:27:18;;;;;;;4.27;3.87;;;6.90;99.90;;;;;;5063734;28;20935;-66
2023/11/19 09:29:46;;;;;;;5.00;3.63;;;7.10;99.90;;;;;;5063974;28;20239;-66
2023/11/19 09:32:13;;;;;;;6.00;3.80;;;7.20;99.90;;;;;;5063894;28;20208;-66
2023/11/19 09:34:40;;;;;;;3.80;3.50;;;7.20;99.90;;;;;;5063868;28;20733;-66
2023/11/19 09:37:07;;;;;;;4.83;3.50;;;7.20;99.90;;;;;;5063699;28;20682;-66
2023/11/19 09:39:36;;;;;;;3.50;3.30;;;7.40;99.90;;;;;;5074481;28;20293;-66
2023/11/19 09:42:02;;;;;;;3.50;3.20;;;7.50;99.90;;;;;;5083897;28;20297;-66
2023/11/19 09:44:30;;;;;;;3.40;3.10;;;7.70;99.90;;;;;;5083568;28;20325;-66
2023/11/19 09:47:00;;;;;;;3.23;3.00;;;7.90;99.90;;;;;;5084098;28;20211;-66
2023/11/19 09:49:28;;;;;;;3.77;2.80;;;8.00;99.90;;;;;;5084236;28;20330;-66
2023/11/19 09:51:55;;;;;;;4.70;3.10;;;8.10;99.90;;;;;;5086071;28;20211;-66
2023/11/19 09:54:22;;;;;;;3.77;2.63;;;8.20;99.90;;;;;;5104242;28;20762;-66
2023/11/19 09:56:51;;;;;;;3.63;2.97;;;8.40;99.90;;;;;;5104039;28;20297;-66
2023/11/19 09:59:18;;;;;;;3.03;2.73;;;8.40;99.90;;;;;;5103734;28;20896;-66
2023/11/19 10:01:47;;;;;;;5.47;2.83;;;8.50;99.90;;;;;;5085629;28;20944;-66
2023/11/19 10:04:17;;;;;;;3.27;2.80;;;8.30;99.90;;;;;;5082777;28;20218;-66
2023/11/19 10:06:44;;;;;;;2.73;2.50;;;8.50;99.90;;;;;;5083471;28;20621;-66
2023/11/19 10:09:15;;;;;;;2.90;2.63;;;8.40;99.90;;;;;;5083381;28;20341;-65
2023/11/19 10:11:42;;;;;;;3.07;2.83;;;8.70;99.90;;;;;;5083462;28;20207;-65
2023/11/19 10:14:10;;;;;;;3.20;2.87;;;8.80;99.90;;;;;;5083800;28;20203;-66
2023/11/19 10:16:39;;;;;;;4.33;2.80;;;8.70;99.90;;;;;;5083493;28;20305;-66
2023/11/19 10:19:06;;;;;;;5.57;2.83;;;8.80;99.90;;;;;;5083180;28;20234;-66
2023/11/19 10:21:34;;;;;;;3.93;2.83;;;9.00;99.90;;;;;;5083136;28;20577;-66
2023/11/19 10:24:01;;;;;;;3.53;2.70;;;9.10;99.90;;;;;;5083384;28;20297;-66
2023/11/19 10:26:28;;;;;;;9.00;2.73;;;9.30;99.90;;;;;;5083319;28;20656;-66
2023/11/19 10:28:57;;;;;;;8.13;3.30;;;9.40;99.90;;;;;;5083284;28;20213;-66
2023/11/19 10:31:26;;;;;;;5.40;3.00;;;9.80;99.90;;;;;;5082736;28;20743;-66
2023/11/19 10:33:53;;;;;;;11.10;3.03;;;10.10;99.90;;;;;;5082969;28;20276;-65
2023/11/19 10:36:21;;;;;;;9.43;4.10;;;10.30;99.90;;;;;;5082885;28;20233;-66
2023/11/19 10:38:54;;;;;;;6.23;3.30;;;10.40;99.90;;;;;;5083100;28;20318;-66
2023/11/19 10:41:31;;;;;;;11.73;3.67;;;10.50;99.90;;;;;;5083073;28;20305;-66
2023/11/19 10:43:58;;;;;;;6.07;3.20;;;10.50;99.90;;;;;;5083388;28;20206;-66
2023/11/19 10:46:38;;;;;;;10.50;3.57;;;10.50;99.90;;;;;;5082677;28;20606;-66
2023/11/19 10:49:06;;;;;;;12.43;4.27;;;10.60;99.90;;;;;;5083369;28;20195;-66
2023/11/19 10:51:34;;;;;;;10.63;3.40;;;10.60;99.90;;;;;;5083092;28;20210;-65
2023/11/19 10:54:05;;;;;;;11.73;5.00;;;10.60;99.90;;;;;;5083116;28;20374;-66
2023/11/19 10:56:33;;;;;;;14.60;4.60;;;10.60;99.90;;;;;;5082876;28;20832;-66
2023/11/19 10:59:02;;;;;;;9.00;4.53;;;10.60;99.90;;;;;;5082692;28;20230;-66
2023/11/19 11:01:40;;;;;;;10.70;3.73;;;10.60;99.90;;;;;;5082063;28;20205;-66
2023/11/19 11:04:14;;;;;;;8.07;3.60;;;10.60;99.90;;;;;;5082923;28;20301;-66
2023/11/19 11:06:41;;;;;;;11.27;3.93;;;10.50;99.90;;;;;;5082958;28;20319;-67
2023/11/19 11:09:11;;;;;;;12.67;3.87;;;10.60;99.90;;;;;;5073991;28;20247;-66
2023/11/19 11:11:39;;;;;;;11.30;3.40;;;10.50;99.90;;;;;;5077716;28;20203;-66
2023/11/19 11:14:06;;;;;;;7.90;3.13;;;10.50;99.90;;;;;;5082830;28;20306;-66
2023/11/19 11:16:36;;;;;;;13.97;3.53;;;10.50;99.90;;;;;;5086326;28;20657;-66
2023/11/19 11:19:04;;;;;;;12.07;3.77;;;10.50;99.90;;;;;;5086627;28;20325;-66
2023/11/19 11:21:31;;;;;;;9.23;3.17;;;10.60;99.90;;;;;;5086671;28;20206;-65
2023/11/19 11:24:17;;;;;;;11.63;3.80;;;10.70;99.90;;;;;;5068073;28;20322;-66
2023/11/19 11:27:16;;;;;;;11.23;3.27;;;10.90;99.90;;;;;;5066345;28;20294;-66
2023/11/19 11:29:50;;;;;;;10.13;4.03;;;11.20;99.90;;;;;;5065847;28;20318;-66
2023/11/19 11:32:26;;;;;;;12.63;3.77;;;11.30;99.90;;;;;;5066365;28;20195;-66
2023/11/19 11:35:20;;;;;;;14.47;4.27;;;11.50;99.90;;;;;;5066205;28;20317;-66
2023/11/19 11:37:50;;;;;;;13.30;4.07;;;11.70;99.90;;;;;;5066548;28;20195;-65
2023/11/19 11:40:18;;;;;;;10.87;3.70;;;12.00;99.90;;;;;;5090134;28;20609;-66
2023/11/19 11:42:45;;;;;;;13.97;3.30;;;12.10;99.90;;;;;;5086368;28;20207;-66
2023/11/19 11:45:13;;;;;;;11.17;3.60;;;12.20;99.90;;;;;;5096422;28;20621;-66
2023/11/19 11:48:19;;;;;;;12.53;3.63;;;12.20;99.90;;;;;;5102415;28;20208;-66
2023/11/19 11:51:06;;;;;;;10.23;3.63;;;12.10;99.90;;;;;;5086428;28;20297;-66
2023/11/19 11:53:36;;;;;;;12.03;3.70;;;12.00;99.90;;;;;;5086543;28;20242;-66
2023/11/19 11:56:05;;;;;;;10.43;3.43;;;11.80;99.90;;;;;;5086333;28;20234;-66
2023/11/19 11:58:33;;;;;;;12.97;3.87;;;11.80;99.90;;;;;;5086154;28;20700;-66
2023/11/19 12:01:05;;;;;;;9.63;3.43;;;11.70;99.90;;;;;;5086089;28;20210;-65
2023/11/19 12:03:33;;;;;;;9.40;3.27;;;11.70;99.90;;;;;;5086160;28;20191;-65
2023/11/19 12:06:00;;;;;;;12.10;3.83;;;11.70;99.90;;;;;;5072299;28;20211;-66
2023/11/19 12:08:30;;;;;;;9.97;3.60;;;11.70;99.90;;;;;;5084458;28;20238;-65
2023/11/19 12:10:59;;;;;;;13.67;3.93;;;11.70;99.90;;;;;;5085216;28;20556;-66
2023/11/19 12:13:43;;;;;;;13.43;3.77;;;11.60;99.90;;;;;;5085524;28;20302;-66
2023/11/19 12:16:11;;;;;;;17.40;3.90;;;11.60;99.90;;;;;;5085345;28;20473;-66
2023/11/19 12:18:41;;;;;;;11.70;3.73;;;11.60;99.90;;;;;;5085155;28;20239;-66
2023/11/19 12:21:10;;;;;;;11.30;3.53;;;11.60;99.90;;;;;;5085526;28;20202;-67
2023/11/19 12:23:49;;;;;;;16.07;3.97;;;11.50;99.90;;;;;;5069371;28;20837;-65
2023/11/19 12:26:44;;;;;;;10.53;3.40;;;11.50;99.90;;;;;;5064216;28;20199;-66
2023/11/19 12:29:11;;;;;;;13.60;3.90;;;11.50;99.90;;;;;;5006404;28;20207;-66
2023/11/19 12:31:38;;;;;;;15.93;4.40;;;11.40;99.90;;;;;;5064106;28;20217;-65
2023/11/19 12:34:11;;;;;;;11.73;3.90;;;11.40;99.90;;;;;;5064557;28;20286;-65
2023/11/19 12:36:40;;;;;;;14.77;3.93;;;11.40;99.90;;;;;;5064329;28;20280;-66
2023/11/19 12:39:12;;;;;;;11.37;3.73;;;11.40;99.90;;;;;;5071550;28;20241;-66
2023/11/19 12:41:59;;;;;;;15.40;4.77;;;11.40;99.90;;;;;;5085015;28;20191;-66
2023/11/19 12:44:26;;;;;;;15.00;4.07;;;11.50;99.90;;;;;;5084863;28;20199;-66
2023/11/19 12:47:03;;;;;;;12.70;3.67;;;11.50;99.90;;;;;;5084127;28;20272;-66
2023/11/19 12:49:30;;;;;;;16.77;4.00;;;11.60;99.90;;;;;;5084415;28;20218;-66
2023/11/19 12:51:57;;;;;;;13.67;3.87;;;11.60;99.90;;;;;;5083117;28;20283;-65
2023/11/19 12:54:35;;;;;;;13.53;3.67;;;11.60;99.90;;;;;;5086098;28;20248;-66
2023/11/19 12:57:02;;;;;;;18.27;4.47;;;11.50;99.90;;;;;;5086281;28;20226;-66
2023/11/19 12:59:29;;;;;;;14.53;4.17;;;11.50;99.90;;;;;;5085864;28;20325;-66